Time;durP1;ratioP1;P1;durP2;ratioP2;P2;SDS_P1;SDS_P2;PMS_P1;PMS_P2;Temp;Humidity;BMP_temperature;BMP_pressure;BME280_temperature;BME280_humidity;BME280_pressure;Samples;Min_cycle;Max_cycle;Signal;HPM_P1;HPM_P2
2023/03/13 00:00:05;;;;;;;10.43;3.10;;;;;;;10.27;65.67;100076.00;4170441;28;20041;-72
2023/03/13 00:02:08;;;;;;;14.07;3.67;;;;;;;10.31;65.05;100070.00;4162791;28;20049;-71
2023/03/13 00:04:10;;;;;;;13.38;3.20;;;;;;;10.31;65.22;100068.25;4162781;28;20115;-71
2023/03/13 00:06:16;;;;;;;15.15;4.13;;;;;;;10.39;65.19;100063.16;4162440;28;20041;-71
2023/03/13 00:08:18;;;;;;;14.75;4.30;;;;;;;10.42;64.62;100063.16;4163653;28;20092;-71
2023/03/13 00:10:21;;;;;;;17.60;4.15;;;;;;;10.35;64.72;100056.19;4159400;28;20041;-71
2023/03/13 00:12:24;;;;;;;15.13;4.03;;;;;;;10.29;65.45;100057.00;4163580;28;20754;-71
2023/03/13 00:14:29;;;;;;;15.82;3.30;;;;;;;10.30;65.72;100053.50;4172756;28;20044;-71
2023/03/13 00:16:34;;;;;;;15.18;3.38;;;;;;;10.32;65.14;100056.13;4174174;28;20434;-71
2023/03/13 00:18:37;;;;;;;12.63;3.75;;;;;;;10.39;65.51;100051.91;4159813;28;20041;-71
2023/03/13 00:20:40;;;;;;;15.90;3.65;;;;;;;10.35;65.32;100050.13;4169416;28;20049;-71
2023/03/13 00:22:43;;;;;;;14.27;3.40;;;;;;;10.38;65.26;100050.16;4159636;28;20045;-71
2023/03/13 00:24:46;;;;;;;12.70;4.00;;;;;;;10.33;65.32;100042.28;4172647;28;20041;-72
2023/03/13 00:26:49;;;;;;;15.32;3.85;;;;;;;10.34;65.58;100041.47;4164229;28;20048;-72
2023/03/13 00:28:52;;;;;;;15.05;3.58;;;;;;;10.33;64.74;100041.44;4162482;28;20092;-71
2023/03/13 00:31:02;;;;;;;18.83;4.10;;;;;;;10.34;64.84;100033.69;4141305;28;20038;-71
2023/03/13 00:33:05;;;;;;;15.25;3.90;;;;;;;10.31;65.19;100026.69;4131506;28;20061;-71
2023/03/13 00:35:08;;;;;;;14.38;3.72;;;;;;;10.29;65.78;100025.81;4148821;28;20041;-72
2023/03/13 00:37:11;;;;;;;16.58;3.90;;;;;;;10.33;65.17;100016.31;4159407;28;20045;-72
2023/03/13 00:39:14;;;;;;;18.92;4.55;;;;;;;10.33;65.47;100008.50;4162370;28;20037;-72
2023/03/13 00:41:19;;;;;;;16.33;4.40;;;;;;;10.36;64.66;100012.91;4160347;28;20053;-71
2023/03/13 00:43:22;;;;;;;11.25;3.35;;;;;;;10.36;65.58;100010.31;4162145;28;20052;-71
2023/03/13 00:45:25;;;;;;;12.90;3.00;;;;;;;10.33;65.33;100012.84;4162275;28;20042;-71
2023/03/13 00:47:29;;;;;;;15.10;3.88;;;;;;;10.44;64.52;100003.41;4154040;28;20095;-71
2023/03/13 00:49:33;;;;;;;11.65;3.08;;;;;;;10.37;65.02;99997.31;4158813;28;20503;-71
2023/03/13 00:51:36;;;;;;;22.42;4.25;;;;;;;10.41;64.42;99991.28;4162214;28;20044;-71
2023/03/13 00:53:38;;;;;;;14.88;3.58;;;;;;;10.38;64.73;99993.88;4162005;28;20041;-71
2023/03/13 00:55:51;;;;;;;11.88;3.33;;;;;;;10.37;64.72;99989.53;4162197;28;20036;-71
2023/03/13 00:57:54;;;;;;;11.43;3.20;;;;;;;10.36;64.47;99984.31;4169075;28;20425;-71
2023/03/13 00:59:56;;;;;;;14.80;3.83;;;;;;;10.35;65.19;99982.56;4145685;28;20049;-71
2023/03/13 01:01:59;;;;;;;12.60;3.60;;;;;;;10.34;64.56;99980.81;4170079;28;20029;-71
2023/03/13 01:04:06;;;;;;;16.40;4.43;;;;;;;10.35;65.38;99983.44;4160663;28;20069;-71
2023/03/13 01:06:11;;;;;;;13.25;3.53;;;;;;;10.40;64.80;99973.94;4160429;28;20124;-71
2023/03/13 01:08:14;;;;;;;13.65;4.03;;;;;;;10.44;63.89;99967.03;4179841;28;20128;-71
2023/03/13 01:10:17;;;;;;;15.32;3.58;;;;;;;10.42;64.61;99967.03;4157806;28;20042;-72
2023/03/13 01:12:20;;;;;;;14.63;3.63;;;;;;;10.44;63.84;99967.03;4172782;28;20037;-73
2023/03/13 01:14:23;;;;;;;12.48;2.90;;;;;;;10.41;64.30;99967.91;4169736;28;20096;-71
2023/03/13 01:16:31;;;;;;;12.32;3.22;;;;;;;10.51;63.76;99949.75;4145103;28;20709;-72
2023/03/13 01:18:34;;;;;;;14.57;3.42;;;;;;;10.48;64.04;99948.91;4157895;28;20557;-71
2023/03/13 01:20:39;;;;;;;15.43;3.55;;;;;;;10.48;64.28;99948.91;4158304;28;20045;-72
2023/03/13 01:22:42;;;;;;;10.25;3.50;;;;;;;10.45;63.97;99937.59;4171906;28;20037;-71
2023/03/13 01:24:48;;;;;;;10.85;2.70;;;;;;;10.47;64.00;99930.69;4145545;28;20382;-71
2023/03/13 01:26:51;;;;;;;12.38;3.13;;;;;;;10.48;64.30;99933.31;4158623;28;20041;-71
2023/03/13 01:28:55;;;;;;;11.63;3.67;;;;;;;10.53;64.51;99929.84;4153953;28;20049;-71
2023/03/13 01:30:57;;;;;;;17.60;3.58;;;;;;;10.50;63.71;99927.22;4177754;28;20048;-71
2023/03/13 01:33:01;;;;;;;11.68;3.15;;;;;;;10.56;64.00;99922.09;4158659;28;20050;-71
2023/03/13 01:35:04;;;;;;;10.02;2.97;;;;;;;10.53;63.86;99916.84;4146210;28;20511;-72
2023/03/13 01:37:08;;;;;;;14.00;2.60;;;;;;;10.56;63.48;99919.47;4152345;28;20033;-71
2023/03/13 01:39:11;;;;;;;12.90;3.63;;;;;;;10.62;63.93;99909.13;4169970;28;20496;-71
2023/03/13 01:41:14;;;;;;;13.90;3.00;;;;;;;10.67;63.19;99907.38;4168528;28;20052;-71
2023/03/13 01:43:21;;;;;;;14.13;3.80;;;;;;;10.68;63.38;99903.94;4175590;28;20381;-71
2023/03/13 01:45:54;;;;;;;12.32;3.15;;;;;;;10.75;62.56;99907.44;4154704;28;21050;-71
2023/03/13 01:47:58;;;;;;;16.20;3.88;;;;;;;10.69;63.04;99907.41;4172538;28;20052;-71
2023/03/13 01:50:18;;;;;;;14.15;3.25;;;;;;;10.77;63.35;99900.50;4151647;28;20041;-71
2023/03/13 01:52:30;;;;;;;11.40;3.47;;;;;;;10.79;62.65;99885.78;4163082;28;20091;-70
2023/03/13 01:54:51;;;;;;;11.07;3.33;;;;;;;10.76;63.10;99881.44;4143027;28;20049;-70
2023/03/13 01:56:59;;;;;;;12.85;3.28;;;;;;;10.77;62.86;99890.97;4151391;28;20409;-70
2023/03/13 01:59:05;;;;;;;6.35;2.20;;;;;;;10.75;63.17;99892.72;4155742;28;20041;-71
2023/03/13 02:03:19;;;;;;;14.50;3.67;;;;;;;10.80;62.99;99877.97;4146976;28;20097;-71
2023/03/13 02:05:25;;;;;;;17.83;4.07;;;;;;;10.80;63.55;99870.19;4098981;28;20046;-71
2023/03/13 02:07:34;;;;;;;13.98;3.45;;;;;;;10.87;63.45;99867.63;4110972;28;20122;-71
2023/03/13 02:09:41;;;;;;;12.70;3.38;;;;;;;10.82;63.07;99863.28;4136012;28;20120;-71
2023/03/13 02:11:49;;;;;;;15.07;3.35;;;;;;;10.80;63.38;99864.97;4127729;28;20394;-71
2023/03/13 02:13:53;;;;;;;9.85;3.08;;;;;;;10.71;63.10;99867.56;4136513;28;20426;-71
2023/03/13 02:15:56;;;;;;;11.30;2.65;;;;;;;10.70;63.44;99860.59;4157436;22;20045;-73
2023/03/13 02:18:00;;;;;;;11.93;2.67;;;;;;;10.72;63.81;99860.59;4166890;28;20040;-73
2023/03/13 02:20:04;;;;;;;7.88;2.67;;;;;;;10.70;64.30;99855.41;4161814;28;20103;-73
2023/03/13 02:22:14;;;;;;;13.05;3.53;;;;;;;10.72;63.66;99851.09;4186336;28;20040;-73
2023/03/13 02:24:28;;;;;;;13.07;3.45;;;;;;;10.72;64.03;99847.59;4165507;28;20103;-73
2023/03/13 02:26:32;;;;;;;13.40;2.97;;;;;;;10.73;64.27;99847.66;4163312;28;20124;-73
2023/03/13 02:28:38;;;;;;;16.05;3.60;;;;;;;10.82;63.84;99834.66;4152983;28;20041;-73
2023/03/13 02:30:47;;;;;;;13.68;2.92;;;;;;;10.76;63.76;99832.06;4150996;28;20045;-73
2023/03/13 02:32:50;;;;;;;11.20;2.75;;;;;;;10.81;63.99;99832.91;4148665;28;20467;-73
2023/03/13 02:34:58;;;;;;;16.33;3.50;;;;;;;10.85;63.51;99825.13;4155449;28;20076;-73
2023/03/13 02:37:04;;;;;;;22.25;3.95;;;;;;;10.83;63.77;99825.13;4153259;28;20068;-72
2023/03/13 02:39:09;;;;;;;10.52;3.47;;;;;;;10.78;63.92;99827.72;4143800;28;20026;-73
2023/03/13 02:41:18;;;;;;;13.18;3.65;;;;;;;10.84;64.14;99826.88;4143845;28;20038;-73
2023/03/13 02:43:29;;;;;;;14.45;2.70;;;;;;;10.80;63.62;99823.38;4147977;28;20042;-73
2023/03/13 02:45:32;;;;;;;10.95;3.00;;;;;;;10.73;64.38;99819.06;4168819;28;20138;-73
2023/03/13 02:47:36;;;;;;;11.73;3.78;;;;;;;10.77;64.45;99812.97;4163838;28;20136;-73
2023/03/13 02:49:39;;;;;;;12.43;2.80;;;;;;;10.80;64.04;99810.38;4154151;28;20033;-73
2023/03/13 02:51:44;;;;;;;13.55;3.22;;;;;;;10.79;64.83;99799.97;4149381;28;20095;-73
2023/03/13 02:53:51;;;;;;;11.48;2.78;;;;;;;10.80;64.71;99799.13;4149647;28;20038;-73
2023/03/13 02:55:54;;;;;;;13.40;3.42;;;;;;;10.81;65.17;99791.31;4152419;28;20507;-73
2023/03/13 02:57:58;;;;;;;8.88;2.35;;;;;;;10.77;64.59;99792.16;4156777;28;20075;-73
2023/03/13 03:00:11;;;;;;;8.88;2.90;;;;;;;10.79;64.93;99789.56;4154922;28;20049;-73
2023/03/13 03:02:15;;;;;;;11.65;2.60;;;;;;;10.93;64.78;99784.41;4147007;28;20038;-73
2023/03/13 03:04:19;;;;;;;9.95;2.97;;;;;;;10.86;64.45;99791.31;4163417;28;20041;-73
2023/03/13 03:06:27;;;;;;;7.93;2.92;;;;;;;10.80;65.39;99779.16;4147325;28;20042;-73
2023/03/13 03:08:31;;;;;;;9.73;2.88;;;;;;;10.71;65.89;99781.75;4156958;28;20042;-73
2023/03/13 03:10:35;;;;;;;8.88;2.47;;;;;;;10.88;65.94;99771.41;4155929;28;20037;-73
2023/03/13 03:12:39;;;;;;;11.82;3.38;;;;;;;10.79;65.27;99790.47;4158218;28;20405;-72
2023/03/13 03:14:42;;;;;;;11.00;2.80;;;;;;;10.86;65.79;99783.53;4147601;28;20041;-73
2023/03/13 03:16:46;;;;;;;7.30;2.60;;;;;;;10.85;65.43;99783.53;4151988;28;20046;-73
2023/03/13 03:18:49;;;;;;;10.18;2.50;;;;;;;10.81;66.10;99786.13;4155948;28;20511;-73
2023/03/13 03:20:52;;;;;;;10.23;2.20;;;;;;;10.85;65.69;99779.22;4146142;28;20033;-74
2023/03/13 03:22:55;;;;;;;11.13;2.13;;;;;;;10.75;66.18;99777.44;4158354;28;20065;-73
2023/03/13 03:24:58;;;;;;;11.23;3.05;;;;;;;10.87;66.39;99779.22;4155930;28;20576;-74
2023/03/13 03:27:00;;;;;;;12.80;2.38;;;;;;;10.70;67.18;99782.63;4157664;28;20036;-74
2023/03/13 03:29:11;;;;;;;9.23;2.53;;;;;;;10.73;67.40;99776.56;4150570;28;20033;-73
2023/03/13 03:31:16;;;;;;;12.10;3.20;;;;;;;10.80;67.48;99771.38;4159350;28;20473;-74
2023/03/13 03:33:20;;;;;;;12.70;2.85;;;;;;;10.71;68.21;99757.50;4156854;28;20042;-74
2023/03/13 03:35:23;;;;;;;13.07;2.83;;;;;;;10.60;68.87;99771.34;4154749;28;20155;-72
2023/03/13 03:37:28;;;;;;;8.82;2.53;;;;;;;10.61;68.67;99760.06;4156953;28;20041;-74
2023/03/13 03:39:33;;;;;;;8.48;2.65;;;;;;;10.64;68.70;99767.91;4151900;28;20056;-73
2023/03/13 03:41:36;;;;;;;8.75;2.25;;;;;;;10.65;69.67;99758.34;4160559;28;20095;-74
2023/03/13 03:43:40;;;;;;;6.03;1.95;;;;;;;10.57;70.41;99758.34;4157773;28;20037;-74
2023/03/13 03:45:44;;;;;;;10.60;3.10;;;;;;;10.72;69.61;99760.09;4168076;28;20064;-74
2023/03/13 03:47:47;;;;;;;6.88;2.40;;;;;;;10.61;70.43;99756.59;4166440;28;20307;-74
2023/03/13 03:49:52;;;;;;;10.48;2.47;;;;;;;10.69;70.82;99761.81;4158051;28;20045;-74
2023/03/13 03:51:54;;;;;;;8.77;2.17;;;;;;;10.63;70.64;99754.88;4140776;28;20042;-74
2023/03/13 03:54:04;;;;;;;7.03;1.85;;;;;;;10.71;71.40;99754.91;4158864;28;20476;-73
2023/03/13 03:56:08;;;;;;;10.88;2.00;;;;;;;10.55;72.13;99754.84;4137166;28;20125;-74
2023/03/13 03:58:16;;;;;;;9.48;2.67;;;;;;;10.55;71.86;99751.41;4166854;28;20049;-73
2023/03/13 04:00:48;;;;;;;11.52;2.40;;;;;;;10.51;73.15;99760.03;4160387;28;20060;-74
2023/03/13 04:02:51;;;;;;;9.68;2.17;;;;;;;10.62;72.31;99750.56;4153571;28;20033;-73
2023/03/13 04:04:56;;;;;;;8.88;2.00;;;;;;;10.60;72.27;99755.75;4167003;28;20552;-73
2023/03/13 04:07:05;;;;;;;5.93;1.80;;;;;;;10.50;73.22;99764.38;4159766;28;20065;-74
2023/03/13 04:09:09;;;;;;;10.35;2.33;;;;;;;10.46;74.27;99758.28;4152463;28;20058;-73
2023/03/13 04:11:13;;;;;;;8.30;1.97;;;;;;;10.45;74.40;99753.09;4137224;28;20042;-73
2023/03/13 04:13:21;;;;;;;8.05;2.35;;;;;;;10.53;74.11;99751.41;4151009;28;20048;-73
2023/03/13 04:15:24;;;;;;;9.63;2.97;;;;;;;10.51;73.90;99749.66;4154012;28;20038;-73
2023/03/13 04:17:27;;;;;;;13.48;2.33;;;;;;;10.60;74.74;99745.34;4156892;28;20048;-74
2023/03/13 04:19:30;;;;;;;7.75;1.90;;;;;;;10.50;74.99;99740.09;4152972;28;20111;-74
2023/03/13 04:21:34;;;;;;;10.25;2.13;;;;;;;10.70;74.74;99734.97;4150021;28;20038;-73
2023/03/13 04:23:45;;;;;;;8.68;1.98;;;;;;;10.63;75.00;99741.88;4140345;28;20505;-73
2023/03/13 04:25:50;;;;;;;7.75;2.08;;;;;;;10.51;75.41;99731.47;4161867;28;20420;-73
2023/03/13 04:27:53;;;;;;;10.05;2.65;;;;;;;10.54;75.42;99732.34;4156917;28;20109;-73
2023/03/13 04:29:59;;;;;;;6.25;1.90;;;;;;;10.47;75.94;99734.06;4138709;28;20045;-73
2023/03/13 04:32:17;;;;;;;9.65;2.10;;;;;;;10.53;75.19;99732.31;4151772;28;20038;-74
2023/03/13 04:34:34;;;;;;;10.23;2.03;;;;;;;10.63;75.87;99719.38;4146274;28;20042;-73
2023/03/13 04:36:41;;;;;;;6.38;1.85;;;;;;;10.65;74.94;99737.56;4179193;28;20400;-73
2023/03/13 04:39:10;;;;;;;5.90;1.70;;;;;;;10.79;75.24;99719.38;4148090;28;20041;-73
2023/03/13 04:41:29;;;;;;;7.38;2.70;;;;;;;10.72;75.10;99717.63;4136699;28;20074;-73
2023/03/13 04:44:10;;;;;;;9.73;2.13;;;;;;;10.65;75.42;99708.97;4154334;28;20505;-73
2023/03/13 04:46:31;;;;;;;3.72;1.30;;;;;;;10.68;75.22;99719.38;4135639;28;20492;-73
2023/03/13 04:49:03;;;;;;;8.77;2.13;;;;;;;10.70;75.53;99727.16;4152369;28;20097;-73
2023/03/13 04:51:17;;;;;;;8.75;2.08;;;;;;;10.68;75.80;99718.50;4144380;28;20041;-73
2023/03/13 04:53:30;;;;;;;7.90;1.98;;;;;;;10.65;75.97;99724.56;4149763;28;20050;-73
2023/03/13 04:55:52;;;;;;;4.90;1.60;;;;;;;10.64;75.74;99720.22;4160842;28;20041;-72
2023/03/13 04:58:16;;;;;;;4.60;1.30;;;;;;;10.70;74.96;99714.16;4171895;28;20068;-73
2023/03/13 05:00:39;;;;;;;8.20;1.63;;;;;;;10.73;75.32;99711.56;4168823;28;20142;-73
2023/03/13 05:02:55;;;;;;;6.97;1.80;;;;;;;10.78;75.74;99700.31;4168096;28;20048;-73
2023/03/13 05:05:03;;;;;;;4.63;1.67;;;;;;;10.81;75.62;99708.13;4132727;28;20517;-73
2023/03/13 05:07:26;;;;;;;4.55;1.50;;;;;;;10.86;75.56;99705.50;4164483;28;20049;-73
2023/03/13 05:10:10;;;;;;;4.72;1.55;;;;;;;10.82;75.29;99714.22;4104185;28;20039;-73
2023/03/13 05:12:39;;;;;;;4.45;1.45;;;;;;;10.87;75.85;99712.47;4086712;28;20087;-73
2023/03/13 05:14:52;;;;;;;3.33;1.33;;;;;;;10.86;75.58;99715.06;4097871;28;20486;-73
2023/03/13 05:17:21;;;;;;;6.22;1.60;;;;;;;10.89;75.41;99699.47;4140875;28;20088;-73
2023/03/13 05:19:42;;;;;;;6.10;1.60;;;;;;;10.88;75.23;99710.72;4141060;28;20042;-73
2023/03/13 05:22:03;;;;;;;4.07;1.48;;;;;;;11.08;75.17;99700.31;4158757;28;20045;-72
2023/03/13 05:24:25;;;;;;;7.80;2.00;;;;;;;11.00;75.06;99692.53;4170577;28;20434;-72
2023/03/13 05:26:58;;;;;;;9.05;1.80;;;;;;;11.06;74.59;99676.06;4171028;28;20079;-72
2023/03/13 05:29:10;;;;;;;7.07;1.65;;;;;;;10.99;75.44;99688.19;4138508;28;20129;-72
2023/03/13 05:31:32;;;;;;;5.25;1.60;;;;;;;10.92;75.74;99676.06;4165766;28;20125;-73
2023/03/13 05:34:01;;;;;;;7.25;1.83;;;;;;;10.95;74.85;99676.94;4131400;28;20053;-73
2023/03/13 05:36:23;;;;;;;4.50;1.25;;;;;;;10.94;75.46;99671.72;4174475;28;20080;-73
2023/03/13 05:38:36;;;;;;;7.03;2.00;;;;;;;11.02;75.47;99664.78;4157661;28;20041;-73
2023/03/13 05:40:42;;;;;;;7.18;1.48;;;;;;;11.07;75.58;99663.06;4171049;28;20099;-74
2023/03/13 05:43:15;;;;;;;5.70;1.90;;;;;;;11.06;75.44;99663.06;4117696;28;20049;-73
2023/03/13 05:45:38;;;;;;;4.65;1.60;;;;;;;11.04;75.96;99657.84;4145915;28;20500;-72
2023/03/13 05:48:03;;;;;;;5.15;1.27;;;;;;;11.13;75.18;99644.84;4152644;28;20083;-73
2023/03/13 05:50:14;;;;;;;4.10;1.60;;;;;;;11.17;75.54;99653.53;4139157;28;21706;-72
2023/03/13 05:52:38;;;;;;;4.65;1.60;;;;;;;11.15;75.41;99648.28;4152966;28;20037;-72
2023/03/13 05:54:49;;;;;;;7.78;3.15;;;;;;;11.21;74.94;99649.16;4143769;28;20504;-72
2023/03/13 05:57:21;;;;;;;4.10;1.45;;;;;;;11.15;76.00;99652.63;4157174;28;20057;-73
2023/03/13 05:59:48;;;;;;;3.13;1.00;;;;;;;11.23;75.85;99652.63;4164080;28;20413;-73
2023/03/13 06:02:10;;;;;;;3.22;1.10;;;;;;;11.30;75.22;99655.22;4147651;28;20046;-71
2023/03/13 06:04:17;;;;;;;2.88;1.27;;;;;;;11.30;75.34;99642.22;4144963;28;20153;-72
2023/03/13 06:06:21;;;;;;;2.92;1.10;;;;;;;11.38;75.68;99636.13;4139827;28;20156;-71
2023/03/13 06:08:27;;;;;;;3.15;1.40;;;;;;;11.38;75.05;99638.72;4135045;28;20049;-72
2023/03/13 06:10:30;;;;;;;2.53;1.00;;;;;;;11.47;75.17;99636.09;4167387;28;20045;-71
2023/03/13 06:12:34;;;;;;;5.88;1.38;;;;;;;11.44;75.69;99636.97;4138824;28;20539;-72
2023/03/13 06:14:38;;;;;;;3.65;0.95;;;;;;;11.43;75.36;99645.63;4146535;28;20145;-71
2023/03/13 06:17:01;;;;;;;2.78;1.23;;;;;;;11.49;75.27;99637.84;4164673;28;20043;-71
2023/03/13 06:19:04;;;;;;;5.78;1.55;;;;;;;11.50;75.69;99636.94;4164235;28;20382;-71
2023/03/13 06:21:07;;;;;;;2.10;0.73;;;;;;;11.44;75.66;99642.16;4164469;28;20116;-71
2023/03/13 06:23:10;;;;;;;3.17;1.15;;;;;;;11.50;76.08;99644.75;4164713;28;20053;-71
2023/03/13 06:25:13;;;;;;;3.42;1.10;;;;;;;11.60;75.83;99649.94;4164151;28;20061;-71
2023/03/13 06:27:16;;;;;;;2.05;0.90;;;;;;;11.56;76.04;99656.03;4164090;28;20037;-72
2023/03/13 06:29:18;;;;;;;3.15;1.00;;;;;;;11.52;76.02;99666.44;4163792;28;20084;-73
2023/03/13 06:31:21;;;;;;;2.80;1.17;;;;;;;11.62;76.24;99662.09;4163090;28;20048;-72
2023/03/13 06:33:26;;;;;;;3.15;1.15;;;;;;;11.63;75.64;99665.56;4143013;28;20041;-72
2023/03/13 06:35:29;;;;;;;2.83;0.95;;;;;;;11.63;76.05;99657.75;4155497;28;20394;-73
2023/03/13 06:37:32;;;;;;;3.75;1.10;;;;;;;11.64;75.87;99664.69;4155898;28;20045;-73
2023/03/13 06:39:35;;;;;;;2.97;1.00;;;;;;;11.65;76.22;99656.00;4153284;28;20373;-73
2023/03/13 06:41:38;;;;;;;1.50;0.90;;;;;;;11.72;76.00;99649.88;4160302;28;20045;-73
2023/03/13 06:43:41;;;;;;;2.80;0.80;;;;;;;11.72;75.68;99636.88;4157247;28;20045;-71
2023/03/13 06:45:44;;;;;;;4.65;1.20;;;;;;;11.79;75.44;99641.19;4150981;28;20052;-71
2023/03/13 06:47:50;;;;;;;3.90;0.93;;;;;;;11.80;75.68;99645.53;4157477;28;20120;-71
2023/03/13 06:49:54;;;;;;;1.45;0.80;;;;;;;11.79;76.02;99637.72;4152890;28;20400;-71
2023/03/13 06:51:58;;;;;;;3.20;0.93;;;;;;;11.83;76.06;99635.09;4138080;28;20046;-72
2023/03/13 06:54:01;;;;;;;3.90;1.00;;;;;;;11.86;76.00;99653.31;4157519;28;20120;-71
2023/03/13 06:56:05;;;;;;;0.88;0.82;;;;;;;11.86;76.15;99650.72;4159898;28;20037;-71
2023/03/13 06:58:08;;;;;;;3.45;1.23;;;;;;;11.86;75.83;99642.03;4150693;28;20568;-71
2023/03/13 07:00:24;;;;;;;1.58;1.00;;;;;;;11.88;75.63;99629.88;4154241;28;20046;-72
2023/03/13 07:02:27;;;;;;;3.17;1.00;;;;;;;11.90;76.08;99622.94;4140599;28;20049;-72
2023/03/13 07:04:29;;;;;;;3.20;0.93;;;;;;;11.90;76.16;99624.66;4153949;28;20030;-71
2023/03/13 07:06:34;;;;;;;1.77;0.77;;;;;;;12.02;75.81;99614.22;4156904;28;20264;-71
2023/03/13 07:08:37;;;;;;;1.52;0.82;;;;;;;12.09;75.55;99621.13;4158750;28;20042;-72
2023/03/13 07:10:42;;;;;;;2.03;1.10;;;;;;;12.10;75.85;99602.00;4156526;28;20095;-72
2023/03/13 07:12:45;;;;;;;1.75;0.88;;;;;;;11.98;75.54;99602.94;4164085;28;20534;-72
2023/03/13 07:14:48;;;;;;;2.88;1.27;;;;;;;12.00;75.85;99600.31;4136316;28;20073;-72
2023/03/13 07:16:51;;;;;;;2.38;0.93;;;;;;;12.09;75.93;99596.78;4161347;28;20457;-72
2023/03/13 07:18:54;;;;;;;1.63;0.82;;;;;;;12.08;76.05;99605.50;4140552;28;20523;-72
2023/03/13 07:20:59;;;;;;;1.45;0.90;;;;;;;12.10;75.79;99616.78;4125469;28;20383;-72
2023/03/13 07:23:03;;;;;;;;;;;;;;;12.02;76.31;99611.59;4138923;28;20065;-72
2023/03/13 07:25:07;;;;;;;1.92;1.00;;;;;;;12.04;76.39;99609.84;4157882;28;19921;-73
2023/03/13 07:27:09;;;;;;;3.13;0.73;;;;;;;12.01;76.35;99613.31;4157669;28;20045;-72
2023/03/13 07:29:12;;;;;;;3.05;0.80;;;;;;;12.07;76.59;99622.84;4153793;28;20285;-73
2023/03/13 07:31:17;;;;;;;0.70;0.65;;;;;;;12.10;76.52;99633.25;4156749;28;20037;-73
2023/03/13 07:33:20;;;;;;;;;;;;;;;12.10;76.44;99638.47;4154784;28;20049;-72
2023/03/13 07:35:23;;;;;;;1.35;0.70;;;;;;;12.13;76.28;99651.47;4158791;28;20019;-72
2023/03/13 07:37:25;;;;;;;1.35;0.80;;;;;;;12.22;76.18;99648.84;4157178;28;20281;-72
2023/03/13 07:39:29;;;;;;;1.10;0.98;;;;;;;12.29;75.84;99639.22;4142031;28;20428;-72
2023/03/13 07:41:33;;;;;;;4.50;1.13;;;;;;;12.35;75.94;99644.44;4119931;28;20046;-72
2023/03/13 07:43:35;;;;;;;1.92;0.88;;;;;;;12.44;75.50;99651.31;4154789;28;20026;-73
2023/03/13 07:45:38;;;;;;;1.40;0.88;;;;;;;12.34;75.89;99639.22;4154258;28;20512;-73
2023/03/13 07:47:41;;;;;;;0.88;0.85;;;;;;;12.41;75.70;99638.28;4138750;28;20072;-73
2023/03/13 07:49:45;;;;;;;5.53;1.23;;;;;;;12.47;75.38;99627.84;4136369;28;20040;-74
2023/03/13 07:51:49;;;;;;;1.92;0.80;;;;;;;12.44;75.44;99633.06;4151466;28;20038;-73
2023/03/13 07:53:53;;;;;;;2.65;0.73;;;;;;;12.48;75.31;99645.19;4152489;28;20385;-74
2023/03/13 07:55:59;;;;;;;2.40;1.08;;;;;;;12.55;75.04;99638.19;4137913;28;20046;-73
2023/03/13 07:58:02;;;;;;;1.80;0.90;;;;;;;12.51;75.09;99646.91;4158644;28;20436;-73
2023/03/13 08:00:10;;;;;;;2.60;0.90;;;;;;;12.59;74.89;99652.94;4159726;28;20469;-74
2023/03/13 08:02:15;;;;;;;1.65;0.93;;;;;;;12.58;74.76;99641.63;4157025;28;20044;-73
2023/03/13 08:04:18;;;;;;;2.13;1.00;;;;;;;12.61;74.78;99650.34;4141944;28;20489;-73
2023/03/13 08:06:23;;;;;;;2.58;1.10;;;;;;;12.61;74.67;99648.59;4158084;28;20044;-73
2023/03/13 08:08:26;;;;;;;1.73;1.00;;;;;;;12.66;74.48;99645.94;4159585;28;20096;-73
2023/03/13 08:10:28;;;;;;;1.08;0.90;;;;;;;12.63;74.49;99651.16;4160630;28;20046;-73
2023/03/13 08:12:33;;;;;;;2.20;1.10;;;;;;;12.63;74.65;99654.66;4161166;28;20120;-73
2023/03/13 08:14:36;;;;;;;1.23;1.02;;;;;;;12.68;74.60;99646.81;4139575;28;20073;-73
2023/03/13 08:16:39;;;;;;;1.35;1.20;;;;;;;12.73;74.21;99650.22;4180641;22;20040;-71
2023/03/13 08:18:44;;;;;;;3.42;1.20;;;;;;;12.69;73.81;99649.41;4171059;28;20451;-71
2023/03/13 08:20:47;;;;;;;3.03;1.10;;;;;;;12.71;73.92;99644.16;4136850;28;20050;-72
2023/03/13 08:22:50;;;;;;;2.40;1.00;;;;;;;12.84;73.64;99637.97;4156094;28;20088;-71
2023/03/13 08:24:53;;;;;;;5.35;1.40;;;;;;;12.88;73.56;99644.03;4171167;28;20056;-71
2023/03/13 08:26:55;;;;;;;5.65;1.25;;;;;;;12.92;73.26;99640.50;4174487;28;20037;-72
2023/03/13 08:29:02;;;;;;;2.55;1.20;;;;;;;12.89;73.25;99649.25;4144813;28;20056;-71
2023/03/13 08:31:09;;;;;;;2.90;1.00;;;;;;;12.83;73.41;99651.88;4156256;28;20100;-71
2023/03/13 08:33:12;;;;;;;1.58;1.48;;;;;;;12.83;73.09;99659.72;4171055;28;20041;-69
2023/03/13 08:35:15;;;;;;;2.60;1.30;;;;;;;12.93;73.00;99658.75;4157465;28;20037;-69
2023/03/13 08:37:17;;;;;;;2.25;1.60;;;;;;;12.97;72.66;99653.53;4174903;28;20044;-69
2023/03/13 08:39:21;;;;;;;2.88;1.13;;;;;;;13.03;72.47;99661.31;4171850;28;20064;-69
2023/03/13 08:41:27;;;;;;;3.53;1.27;;;;;;;13.12;72.54;99658.59;4172029;28;20404;-69
2023/03/13 08:43:30;;;;;;;2.50;1.15;;;;;;;13.12;72.55;99658.59;4174953;28;20029;-69
2023/03/13 08:45:34;;;;;;;2.35;1.00;;;;;;;13.18;72.10;99666.38;4175379;28;20392;-70
2023/03/13 08:47:40;;;;;;;2.63;1.40;;;;;;;13.23;71.54;99661.13;4175854;28;20044;-69
2023/03/13 08:49:43;;;;;;;2.63;1.00;;;;;;;13.17;71.72;99659.44;4173091;28;20452;-69
2023/03/13 08:51:45;;;;;;;5.20;2.17;;;;;;;13.17;72.38;99662.06;4140009;28;20129;-69
2023/03/13 08:53:49;;;;;;;3.38;1.70;;;;;;;13.28;71.58;99649.75;4172661;28;20052;-69
2023/03/13 08:55:52;;;;;;;2.60;1.40;;;;;;;13.23;71.82;99661.97;4155568;28;20160;-69
2023/03/13 08:57:56;;;;;;;3.17;1.25;;;;;;;13.19;71.95;99660.28;4172831;28;20511;-69
2023/03/13 08:59:58;;;;;;;4.38;1.40;;;;;;;13.16;72.00;99664.69;4174930;28;20049;-70
2023/03/13 09:02:03;;;;;;;1.55;1.10;;;;;;;13.18;71.49;99661.16;4154586;28;21347;-69
2023/03/13 09:04:06;;;;;;;5.65;1.70;;;;;;;13.23;71.75;99659.38;4174109;28;20063;-69
2023/03/13 09:06:10;;;;;;;3.10;1.55;;;;;;;13.27;71.87;99657.59;4174972;28;20066;-69
2023/03/13 09:08:13;;;;;;;6.90;1.50;;;;;;;13.30;72.07;99651.47;4172735;28;20041;-69
2023/03/13 09:10:16;;;;;;;2.85;1.27;;;;;;;13.35;71.86;99639.28;4174570;28;20041;-69
2023/03/13 09:12:19;;;;;;;4.10;1.20;;;;;;;13.33;71.88;99648.84;4138453;28;20054;-69
2023/03/13 09:14:32;;;;;;;2.50;1.23;;;;;;;13.40;71.87;99648.81;4158971;28;20515;-69
2023/03/13 09:16:38;;;;;;;0.75;0.70;;;;;;;13.34;71.46;99633.19;4173903;28;20055;-69
2023/03/13 09:18:43;;;;;;;4.57;1.23;;;;;;;13.27;72.04;99647.13;4158495;28;20048;-69
2023/03/13 09:20:46;;;;;;;2.72;1.00;;;;;;;13.23;71.97;99641.09;4177128;28;20458;-69
2023/03/13 09:22:50;;;;;;;;;;;;;;;13.25;72.04;99639.31;4159803;28;20452;-69
2023/03/13 09:24:53;;;;;;;3.00;1.00;;;;;;;13.34;71.29;99642.75;4161765;28;19921;-69
2023/03/13 09:26:56;;;;;;;1.65;0.95;;;;;;;13.28;71.90;99665.41;4181676;28;20041;-69
2023/03/13 09:29:03;;;;;;;1.70;0.95;;;;;;;13.29;71.90;99645.41;4177134;28;20484;-68
2023/03/13 09:31:07;;;;;;;4.82;1.30;;;;;;;13.28;71.77;99647.13;4155407;28;20096;-69
2023/03/13 09:33:10;;;;;;;1.88;1.33;;;;;;;13.33;71.37;99635.78;4158944;28;20092;-69
2023/03/13 09:35:14;;;;;;;4.40;1.17;;;;;;;13.28;71.51;99639.28;4156006;28;20449;-69
2023/03/13 09:37:17;;;;;;;4.03;1.13;;;;;;;13.36;71.39;99633.16;4172582;28;20427;-69
2023/03/13 09:39:20;;;;;;;1.85;1.15;;;;;;;13.28;71.32;99638.44;4169495;28;20075;-69
2023/03/13 09:41:30;;;;;;;4.03;1.33;;;;;;;13.23;71.24;99635.88;4178027;28;20468;-69
2023/03/13 09:43:41;;;;;;;2.53;1.40;;;;;;;13.41;71.02;99620.94;4173937;28;20063;-69
2023/03/13 09:45:47;;;;;;;5.30;1.60;;;;;;;13.38;71.00;99615.75;4175978;28;20044;-69
2023/03/13 09:47:54;;;;;;;1.92;1.15;;;;;;;13.52;70.92;99606.03;4174348;28;20492;-69
2023/03/13 09:50:03;;;;;;;2.28;1.25;;;;;;;13.44;71.01;99619.16;4179962;28;20090;-69
2023/03/13 09:52:16;;;;;;;2.25;1.20;;;;;;;13.51;70.52;99609.50;4179302;28;20078;-69
2023/03/13 09:54:25;;;;;;;1.85;1.00;;;;;;;13.49;70.67;99600.84;4178805;28;20052;-69
2023/03/13 09:56:33;;;;;;;1.20;1.00;;;;;;;13.48;71.00;99593.88;4180289;28;20139;-69
2023/03/13 09:58:40;;;;;;;3.63;1.58;;;;;;;13.54;70.68;99591.19;4180356;28;20602;-69